| time (UTC) | temp C | wind direction | speed KPH | gust KPH | rain 1hr cm | rain 24hr cm | rain mn cm | humidity % | barometer mb |
| 20260905143731 | 20 | 333 | 4.8 | 4.8 | 0.00 | 0.00 | 0.00 | 80 | 1014.0 |
| 20260905143230 | 18 | 340 | 3.2 | 8.0 | 0.00 | 0.00 | 0.00 | 81 | 1014.0 |
| 20260905142731 | 19 | 306 | 6.4 | 8.0 | 0.00 | 0.00 | 0.00 | 82 | 1014.0 |
| 20260905142331 | 19 | 332 | 6.4 | 9.7 | 0.00 | 0.00 | 0.00 | 82 | 1014.0 |
| 20260905141730 | 20 | 306 | 8.0 | 9.7 | 0.00 | 0.00 | 0.00 | 81 | 1014.0 |
| 20260905141229 | 20 | 314 | 3.2 | 4.8 | 0.00 | 0.00 | 0.00 | 82 | 1014.0 |
| 20260905140728 | 20 | 339 | 9.7 | 12.9 | 0.00 | 0.00 | 0.00 | 83 | 1014.0 |
| 20260905140230 | 19 | 333 | 6.4 | 9.7 | 0.00 | 0.00 | 0.00 | 86 | 1014.0 |
| 20260905135732 | 19 | 317 | 1.6 | 3.2 | 0.00 | 0.00 | 0.00 | 85 | 1014.0 |
| 20260905135230 | 19 | 333 | 4.8 | 8.0 | 0.00 | 0.00 | 0.00 | 86 | 1014.0 |
| 20260905134727 | 18 | 331 | 3.2 | 8.0 | 0.00 | 0.00 | 0.00 | 88 | 1014.0 |
| 20260905134228 | 18 | 315 | 4.8 | 8.0 | 0.00 | 0.00 | 0.00 | 87 | 1014.0 |
| 20260905133727 | 18 | 316 | 6.4 | 9.7 | 0.00 | 0.00 | 0.00 | 89 | 1014.0 |
| 20260905133228 | 18 | 331 | 3.2 | 8.0 | 0.00 | 0.00 | 0.00 | 90 | 1014.0 |
| 20260905132726 | 17 | 294 | 1.6 | 4.8 | 0.00 | 0.00 | 0.00 | 90 | 1014.0 |
| 20260905132229 | 17 | 330 | 6.4 | 8.0 | 0.00 | 0.00 | 0.00 | 91 | 1014.0 |
| 20260905131726 | 17 | 354 | 4.8 | 9.7 | 0.00 | 0.00 | 0.00 | 92 | 1014.0 |
| 20260905131225 | 17 | 344 | 9.7 | 11.3 | 0.00 | 0.00 | 0.00 | 91 | 1014.0 |
| 20260905130726 | 17 | 317 | 3.2 | 8.0 | 0.00 | 0.00 | 0.00 | 92 | 1014.0 |
| 20260905130225 | 16 | 306 | 4.8 | 8.0 | 0.00 | 0.00 | 0.00 | 95 | 1014.0 |
| 20260905125725 | 16 | 323 | 1.6 | 1.6 | 0.00 | 0.00 | 0.00 | 94 | 1014.0 |
| 20260905125223 | 16 | 309 | 3.2 | 8.0 | 0.00 | 0.00 | 0.00 | 95 | 1014.0 |
| 20260905124722 | 16 | 324 | 1.6 | 3.2 | 0.00 | 0.00 | 0.00 | 96 | 1013.8 |
| 20260905124223 | 16 | 309 | 3.2 | 3.2 | 0.00 | 0.00 | 0.00 | 96 | 1014.0 |
| 20260905123723 | 16 | 0.0 | 0.0 | 0.00 | 0.00 | 0.00 | 97 | 1014.0 | |
| 20260905123222 | 16 | 343 | 3.2 | 3.2 | 0.00 | 0.00 | 0.00 | 97 | 1014.0 |
| 20260905122721 | 16 | 323 | 0.0 | 1.6 | 0.00 | 0.00 | 0.00 | 96 | 1013.8 |
| 20260905122222 | 16 | 0.0 | 0.0 | 0.00 | 0.00 | 0.00 | 96 | 1013.7 | |
| 20260905121721 | 16 | 318 | 0.0 | 1.6 | 0.00 | 0.00 | 0.00 | 96 | 1013.7 |
| 20260905121220 | 16 | 318 | 1.6 | 1.6 | 0.00 | 0.00 | 0.00 | 97 | 1013.7 |
| 20260905120720 | 16 | 316 | 1.6 | 1.6 | 0.00 | 0.00 | 0.00 | 97 | 1013.7 |
| 20260905120221 | 15 | 317 | 1.6 | 1.6 | 0.00 | 0.00 | 0.00 | 97 | 1013.7 |
| 20260905115721 | 15 | 319 | 1.6 | 1.6 | 0.00 | 0.00 | 0.00 | 99 | 1013.3 |
| 20260905115220 | 15 | 0.0 | 0.0 | 0.00 | 0.00 | 0.00 | 99 | 1013.3 | |
| 20260905114721 | 15 | 0.0 | 0.0 | 0.00 | 0.00 | 0.00 | 99 | 1013.3 | |
| 20260905113719 | 14 | 0.0 | 0.0 | 0.00 | 0.00 | 0.00 | 99 | 1013.3 | |
| 20260905113218 | 14 | 325 | 1.6 | 1.6 | 0.00 | 0.00 | 0.00 | 99 | 1013.3 |
| 20260905112219 | 13 | 323 | 1.6 | 3.2 | 0.00 | 0.00 | 0.00 | 99 | 1013.3 |
| 20260905111718 | 13 | 324 | 1.6 | 3.2 | 0.00 | 0.00 | 0.00 | 99 | 1013.3 |
| 20260905111217 | 13 | 326 | 1.6 | 1.6 | 0.00 | 0.00 | 0.00 | 99 | 1013.3 |
| 20260905110756 | 13 | 324 | 1.6 | 1.6 | 0.00 | 0.00 | 0.00 | 99 | 1013.3 |
| 20260905100243 | 13 | 324 | 1.6 | 3.2 | 0.00 | 0.00 | 0.00 | 99 | 1012.8 |
| 20260905095743 | 13 | 321 | 1.6 | 3.2 | 0.00 | 0.00 | 0.00 | 99 | 1012.6 |
| 20260905095242 | 13 | 321 | 1.6 | 3.2 | 0.00 | 0.00 | 0.00 | 99 | 1012.6 |
| 20260905094741 | 13 | 323 | 1.6 | 3.2 | 0.00 | 0.00 | 0.00 | 99 | 1012.6 |
| 20260905094242 | 13 | 326 | 3.2 | 3.2 | 0.00 | 0.00 | 0.00 | 99 | 1012.6 |
| 20260905093742 | 13 | 326 | 3.2 | 3.2 | 0.00 | 0.00 | 0.00 | 99 | 1012.6 |
| 20260905093241 | 13 | 326 | 3.2 | 4.8 | 0.00 | 0.00 | 0.00 | 99 | 1012.6 |
| 20260905092740 | 13 | 329 | 3.2 | 3.2 | 0.00 | 0.00 | 0.00 | 99 | 1012.6 |
| 20260905092241 | 13 | 329 | 3.2 | 4.8 | 0.00 | 0.00 | 0.00 | 99 | 1012.6 |
| 20260905091239 | 13 | 329 | 3.2 | 3.2 | 0.00 | 0.00 | 0.00 | 99 | 1012.6 |
| 20260905090239 | 13 | 322 | 3.2 | 3.2 | 0.00 | 0.00 | 0.00 | 99 | 1012.4 |
| 20260905085738 | 13 | 325 | 3.2 | 3.2 | 0.00 | 0.00 | 0.00 | 99 | 1012.6 |
| 20260905085237 | 13 | 318 | 3.2 | 3.2 | 0.00 | 0.00 | 0.00 | 99 | 1012.6 |
| 20260905084739 | 13 | 322 | 1.6 | 3.2 | 0.00 | 0.00 | 0.00 | 99 | 1012.6 |
| 20260905084238 | 13 | 316 | 3.2 | 3.2 | 0.00 | 0.00 | 0.00 | 99 | 1012.6 |
| 20260905083737 | 13 | 322 | 3.2 | 3.2 | 0.00 | 0.00 | 0.00 | 99 | 1012.6 |
| 20260905083238 | 13 | 316 | 3.2 | 3.2 | 0.00 | 0.00 | 0.00 | 99 | 1012.6 |
| 20260905082737 | 13 | 325 | 3.2 | 3.2 | 0.00 | 0.00 | 0.00 | 99 | 1012.4 |
| 20260905082236 | 13 | 318 | 3.2 | 3.2 | 0.00 | 0.00 | 0.00 | 99 | 1012.6 |
| 20260905081736 | 13 | 328 | 3.2 | 3.2 | 0.00 | 0.00 | 0.00 | 99 | 1012.6 |
| 20260905081235 | 13 | 322 | 3.2 | 3.2 | 0.00 | 0.00 | 0.00 | 99 | 1012.6 |
| 20260905080734 | 13 | 324 | 3.2 | 3.2 | 0.00 | 0.00 | 0.00 | 99 | 1012.6 |
| 20260905080235 | 13 | 321 | 3.2 | 3.2 | 0.00 | 0.00 | 0.00 | 99 | 1012.6 |
| 20260905075734 | 13 | 315 | 3.2 | 3.2 | 0.00 | 0.00 | 0.00 | 99 | 1012.6 |
| 20260905075234 | 13 | 319 | 1.6 | 1.6 | 0.00 | 0.00 | 0.00 | 99 | 1012.6 |
| 20260905074735 | 13 | 321 | 1.6 | 3.2 | 0.00 | 0.00 | 0.00 | 99 | 1012.6 |
| 20260905074234 | 13 | 319 | 3.2 | 3.2 | 0.00 | 0.00 | 0.00 | 99 | 1012.6 |
| 20260905073733 | 13 | 319 | 3.2 | 3.2 | 0.00 | 0.00 | 0.00 | 99 | 1012.6 |
| 20260905073232 | 13 | 320 | 3.2 | 3.2 | 0.00 | 0.00 | 0.00 | 99 | 1012.6 |
| 20260905072732 | 13 | 321 | 3.2 | 3.2 | 0.00 | 0.00 | 0.00 | 99 | 1012.6 |
| 20260905072233 | 14 | 319 | 3.2 | 3.2 | 0.00 | 0.00 | 0.00 | 99 | 1012.8 |
| 20260905071732 | 14 | 323 | 3.2 | 3.2 | 0.00 | 0.00 | 0.00 | 99 | 1013.0 |
| 20260905071236 | 14 | 316 | 3.2 | 3.2 | 0.00 | 0.00 | 0.00 | 99 | 1012.6 |
| 20260905070730 | 14 | 323 | 3.2 | 3.2 | 0.00 | 0.00 | 0.00 | 99 | 1013.0 |
| 20260905070231 | 14 | 321 | 3.2 | 3.2 | 0.00 | 0.00 | 0.00 | 99 | 1013.0 |
| 20260905065731 | 14 | 317 | 3.2 | 3.2 | 0.00 | 0.00 | 0.00 | 99 | 1013.0 |
| 20260905065230 | 14 | 325 | 3.2 | 3.2 | 0.00 | 0.00 | 0.00 | 99 | 1013.0 |
| 20260905064729 | 14 | 328 | 3.2 | 3.2 | 0.00 | 0.00 | 0.00 | 99 | 1013.0 |
| 20260905064230 | 15 | 322 | 1.6 | 3.2 | 0.00 | 0.00 | 0.00 | 99 | 1013.0 |
| 20260905063229 | 15 | 319 | 3.2 | 3.2 | 0.00 | 0.00 | 0.00 | 99 | 1013.0 |
| 20260905062729 | 15 | 322 | 1.6 | 3.2 | 0.00 | 0.00 | 0.00 | 99 | 1013.1 |
| 20260905062227 | 15 | 323 | 3.2 | 3.2 | 0.00 | 0.00 | 0.00 | 99 | 1013.1 |
| 20260905061728 | 15 | 320 | 1.6 | 3.2 | 0.00 | 0.00 | 0.00 | 99 | 1013.0 |
| 20260905061227 | 15 | 319 | 1.6 | 3.2 | 0.00 | 0.00 | 0.00 | 99 | 1013.3 |
| 20260905060726 | 15 | 323 | 3.2 | 3.2 | 0.00 | 0.00 | 0.00 | 99 | 1013.3 |
| 20260905060228 | 15 | 329 | 1.6 | 3.2 | 0.00 | 0.00 | 0.00 | 99 | 1013.3 |
| 20260905055727 | 15 | 321 | 3.2 | 3.2 | 0.00 | 0.00 | 0.00 | 98 | 1013.3 |
| 20260905055226 | 15 | 322 | 1.6 | 1.6 | 0.00 | 0.00 | 0.00 | 99 | 1013.1 |
| 20260905054725 | 15 | 325 | 1.6 | 1.6 | 0.00 | 0.00 | 0.00 | 98 | 1013.3 |
| 20260905053725 | 15 | 328 | 1.6 | 1.6 | 0.00 | 0.00 | 0.00 | 98 | 1013.3 |
| 20260905053224 | 15 | 319 | 1.6 | 1.6 | 0.00 | 0.00 | 0.00 | 98 | 1013.3 |
| 20260905052729 | 16 | 327 | 1.6 | 1.6 | 0.00 | 0.00 | 0.00 | 98 | 1013.3 |
| 20260905052225 | 16 | 327 | 3.2 | 3.2 | 0.00 | 0.00 | 0.00 | 98 | 1013.3 |
| 20260905051724 | 16 | 321 | 1.6 | 3.2 | 0.00 | 0.00 | 0.00 | 98 | 1013.3 |
| 20260905050722 | 16 | 325 | 1.6 | 3.2 | 0.00 | 0.00 | 0.00 | 98 | 1013.3 |
| 20260905050222 | 16 | 328 | 3.2 | 4.8 | 0.00 | 0.00 | 0.00 | 98 | 1013.3 |
| 20260905045723 | 16 | 328 | 3.2 | 3.2 | 0.00 | 0.00 | 0.00 | 97 | 1013.3 |
| 20260905045222 | 16 | 325 | 1.6 | 3.2 | 0.00 | 0.00 | 0.00 | 97 | 1013.3 |
| 20260905044721 | 16 | 325 | 1.6 | 3.2 | 0.00 | 0.00 | 0.00 | 97 | 1013.3 |
| 20260905044220 | 16 | 328 | 1.6 | 1.6 | 0.00 | 0.00 | 0.00 | 99 | 1013.3 |
| 20260905043721 | 16 | 321 | 1.6 | 1.6 | 0.00 | 0.00 | 0.00 | 99 | 1013.7 |
| 20260905043221 | 15 | 319 | 1.6 | 1.6 | 0.00 | 0.00 | 0.00 | 99 | 1013.3 |
| 20260905042720 | 15 | 323 | 1.6 | 3.2 | 0.00 | 0.00 | 0.00 | 99 | 1013.3 |
| 20260905042219 | 15 | 324 | 1.6 | 3.2 | 0.00 | 0.00 | 0.00 | 99 | 1013.3 |
| 20260905041720 | 15 | 323 | 1.6 | 1.6 | 0.00 | 0.00 | 0.00 | 99 | 1013.3 |
| 20260905041219 | 15 | 319 | 1.6 | 1.6 | 0.00 | 0.00 | 0.00 | 99 | 1013.3 |
| 20260905040719 | 15 | 325 | 3.2 | 3.2 | 0.00 | 0.00 | 0.00 | 99 | 1013.3 |
| 20260905040218 | 15 | 325 | 3.2 | 3.2 | 0.00 | 0.00 | 0.00 | 99 | 1013.3 |
| 20260905035821 | 15 | 319 | 1.6 | 1.6 | 0.00 | 0.00 | 0.00 | 99 | 1013.3 |
| 20260905035219 | 15 | 319 | 3.2 | 3.2 | 0.00 | 0.00 | 0.00 | 99 | 1013.7 |
| 20260905034719 | 15 | 323 | 3.2 | 3.2 | 0.00 | 0.00 | 0.00 | 99 | 1013.3 |
| 20260905034216 | 15 | 327 | 1.6 | 3.2 | 0.00 | 0.00 | 0.00 | 99 | 1013.3 |
| 20260905033718 | 15 | 319 | 3.2 | 3.2 | 0.00 | 0.00 | 0.00 | 99 | 1013.5 |
| 20260905033217 | 15 | 327 | 1.6 | 1.6 | 0.00 | 0.00 | 0.00 | 99 | 1013.3 |
| 20260905032716 | 15 | 321 | 3.2 | 3.2 | 0.00 | 0.00 | 0.00 | 99 | 1013.5 |
| 20260905032215 | 15 | 328 | 1.6 | 1.6 | 0.00 | 0.00 | 0.00 | 99 | 1013.5 |
| 20260905031746 | 16 | 319 | 1.6 | 1.6 | 0.00 | 0.00 | 0.00 | 99 | 1013.7 |
| 20260905031245 | 16 | 324 | 1.6 | 1.6 | 0.00 | 0.00 | 0.00 | 99 | 1013.3 |
| 20260905030745 | 16 | 325 | 1.6 | 1.6 | 0.00 | 0.00 | 0.00 | 99 | 1013.5 |
| 20260905030244 | 16 | 322 | 3.2 | 3.2 | 0.00 | 0.00 | 0.00 | 99 | 1013.3 |
| 20260905025745 | 16 | 328 | 3.2 | 3.2 | 0.00 | 0.00 | 0.00 | 99 | 1013.3 |
| 20260905025244 | 16 | 321 | 3.2 | 3.2 | 0.00 | 0.00 | 0.00 | 98 | 1013.5 |
| 20260905024743 | 16 | 320 | 3.2 | 3.2 | 0.00 | 0.00 | 0.00 | 98 | 1013.7 |
| 20260905024243 | 16 | 327 | 3.2 | 3.2 | 0.00 | 0.00 | 0.00 | 98 | 1013.7 |
| 20260905023846 | 16 | 319 | 3.2 | 3.2 | 0.00 | 0.00 | 0.00 | 97 | 1013.7 |
| 20260905023343 | 16 | 319 | 1.6 | 3.2 | 0.00 | 0.00 | 0.00 | 97 | 1013.7 |
| 20260905022744 | 16 | 319 | 3.2 | 3.2 | 0.00 | 0.00 | 0.00 | 96 | 1013.7 |
| 20260905022243 | 16 | 323 | 3.2 | 3.2 | 0.00 | 0.00 | 0.00 | 96 | 1013.8 |
| 20260905021740 | 16 | 324 | 3.2 | 3.2 | 0.00 | 0.00 | 0.00 | 96 | 1013.8 |
| 20260905021241 | 16 | 320 | 3.2 | 3.2 | 0.00 | 0.00 | 0.00 | 96 | 1013.7 |
| 20260905020741 | 16 | 321 | 3.2 | 3.2 | 0.00 | 0.00 | 0.00 | 96 | 1013.7 |
| 20260905020240 | 16 | 323 | 3.2 | 3.2 | 0.00 | 0.00 | 0.00 | 96 | 1014.0 |
| 20260905015739 | 16 | 322 | 3.2 | 3.2 | 0.00 | 0.00 | 0.00 | 96 | 1014.0 |
| 20260905015240 | 16 | 325 | 3.2 | 3.2 | 0.00 | 0.00 | 0.00 | 97 | 1013.7 |
| 20260905014739 | 16 | 324 | 3.2 | 3.2 | 0.00 | 0.00 | 0.00 | 97 | 1014.0 |
| 20260905014239 | 16 | 321 | 3.2 | 3.2 | 0.00 | 0.00 | 0.00 | 97 | 1014.0 |
| 20260905013738 | 16 | 323 | 3.2 | 3.2 | 0.00 | 0.00 | 0.00 | 97 | 1014.0 |
| 20260905013240 | 16 | 321 | 3.2 | 3.2 | 0.00 | 0.00 | 0.00 | 97 | 1014.0 |
| 20260905012739 | 16 | 321 | 3.2 | 3.2 | 0.00 | 0.00 | 0.00 | 97 | 1014.0 |
| 20260905012237 | 16 | 326 | 3.2 | 3.2 | 0.00 | 0.00 | 0.00 | 97 | 1014.0 |
| 20260905011737 | 16 | 324 | 3.2 | 3.2 | 0.00 | 0.00 | 0.00 | 97 | 1014.0 |
| 20260905011238 | 16 | 321 | 3.2 | 3.2 | 0.00 | 0.00 | 0.00 | 97 | 1013.8 |
| 20260905010737 | 16 | 320 | 3.2 | 3.2 | 0.00 | 0.00 | 0.00 | 97 | 1014.0 |
| 20260905010236 | 16 | 319 | 3.2 | 3.2 | 0.00 | 0.00 | 0.00 | 97 | 1014.0 |
| 20260905005839 | 16 | 321 | 3.2 | 3.2 | 0.00 | 0.00 | 0.00 | 97 | 1014.0 |
| 20260905005235 | 16 | 319 | 3.2 | 3.2 | 0.00 | 0.00 | 0.00 | 96 | 1014.0 |
| 20260905004736 | 16 | 321 | 3.2 | 3.2 | 0.00 | 0.00 | 0.00 | 96 | 1014.0 |
| 20260905004235 | 16 | 318 | 1.6 | 1.6 | 0.00 | 0.00 | 0.00 | 96 | 1014.0 |
| 20260905003839 | 16 | 321 | 1.6 | 1.6 | 0.00 | 0.00 | 0.00 | 96 | 1013.7 |
| 20260905003338 | 16 | 322 | 1.6 | 1.6 | 0.00 | 0.00 | 0.00 | 96 | 1014.0 |
| 20260905002735 | 17 | 323 | 1.6 | 1.6 | 0.00 | 0.00 | 0.00 | 96 | 1014.0 |
| 20260905002234 | 17 | 321 | 1.6 | 3.2 | 0.00 | 0.00 | 0.00 | 96 | 1014.0 |
| 20260905001733 | 17 | 319 | 1.6 | 3.2 | 0.00 | 0.00 | 0.00 | 95 | 1014.0 |
| 20260905001234 | 17 | 323 | 1.6 | 3.2 | 0.00 | 0.00 | 0.00 | 95 | 1014.0 |
| 20260905000733 | 17 | 321 | 1.6 | 3.2 | 0.00 | 0.00 | 0.00 | 95 | 1014.0 |
| 20260905000233 | 17 | 321 | 1.6 | 1.6 | 0.00 | 0.00 | 0.00 | 95 | 1014.0 |
| 20260904235832 | 17 | 322 | 1.6 | 1.6 | 0.00 | 0.00 | 0.00 | 94 | 1013.7 |
| 20260904235231 | 17 | 323 | 1.6 | 1.6 | 0.00 | 0.00 | 0.00 | 93 | 1013.7 |
| 20260904234734 | 17 | 325 | 0.0 | 1.6 | 0.00 | 0.00 | 0.00 | 93 | 1013.7 |
| 20260904234233 | 18 | 322 | 1.6 | 1.6 | 0.00 | 0.00 | 0.00 | 92 | 1013.7 |
| 20260904233734 | 18 | 322 | 0.0 | 1.6 | 0.00 | 0.00 | 0.00 | 91 | 1013.7 |
| 20260904233232 | 18 | 327 | 1.6 | 1.6 | 0.00 | 0.00 | 0.00 | 91 | 1013.3 |
| 20260904232731 | 18 | 323 | 0.0 | 1.6 | 0.00 | 0.00 | 0.00 | 90 | 1013.7 |
| 20260904232230 | 18 | 328 | 1.6 | 1.6 | 0.00 | 0.00 | 0.00 | 89 | 1013.7 |
| 20260904231729 | 18 | 0.0 | 0.0 | 0.00 | 0.00 | 0.00 | 90 | 1013.3 | |
| 20260904231229 | 19 | 0.0 | 0.0 | 0.00 | 0.00 | 0.00 | 89 | 1013.3 | |
| 20260904220827 | 22 | 323 | 1.6 | 1.6 | 0.00 | 0.00 | 0.00 | 76 | 1013.0 |
| 20260904220225 | 22 | 325 | 3.2 | 3.2 | 0.00 | 0.00 | 0.00 | 75 | 1013.3 |
| 20260904215725 | 22 | 319 | 1.6 | 1.6 | 0.00 | 0.00 | 0.00 | 76 | 1013.3 |
| 20260904215224 | 22 | 319 | 1.6 | 3.2 | 0.00 | 0.00 | 0.00 | 74 | 1013.3 |
| 20260904214722 | 22 | 326 | 3.2 | 4.8 | 0.00 | 0.00 | 0.00 | 73 | 1013.3 |
| 20260904214224 | 23 | 312 | 3.2 | 3.2 | 0.00 | 0.00 | 0.00 | 72 | 1013.3 |
| 20260904213723 | 23 | 312 | 4.8 | 8.0 | 0.00 | 0.00 | 0.00 | 71 | 1013.3 |
| 20260904213224 | 23 | 301 | 4.8 | 4.8 | 0.00 | 0.00 | 0.00 | 71 | 1013.3 |
| 20260904212724 | 23 | 325 | 1.6 | 1.6 | 0.00 | 0.00 | 0.00 | 72 | 1013.3 |
| 20260904212222 | 23 | 337 | 3.2 | 3.2 | 0.00 | 0.00 | 0.00 | 73 | 1013.3 |
| 20260904211721 | 22 | 346 | 0.0 | 1.6 | 0.00 | 0.00 | 0.00 | 73 | 1013.3 |
| 20260904211222 | 22 | 308 | 4.8 | 8.0 | 0.00 | 0.00 | 0.00 | 74 | 1013.3 |
| 20260904210721 | 23 | 324 | 6.4 | 8.0 | 0.00 | 0.00 | 0.00 | 71 | 1013.3 |
| 20260904210221 | 23 | 339 | 4.8 | 8.0 | 0.00 | 0.00 | 0.00 | 72 | 1013.3 |
| 20260904205720 | 23 | 295 | 9.7 | 12.9 | 0.00 | 0.00 | 0.00 | 70 | 1013.3 |
| 20260904205219 | 23 | 324 | 4.8 | 14.5 | 0.00 | 0.00 | 0.00 | 70 | 1013.3 |
| 20260904204720 | 23 | 298 | 4.8 | 4.8 | 0.00 | 0.00 | 0.00 | 71 | 1013.3 |
| 20260904204321 | 23 | 322 | 6.4 | 11.3 | 0.00 | 0.00 | 0.00 | 70 | 1013.1 |
| 20260904203819 | 23 | 315 | 4.8 | 8.0 | 0.00 | 0.00 | 0.00 | 71 | 1013.3 |
| 20260904203218 | 23 | 323 | 4.8 | 4.8 | 0.00 | 0.00 | 0.00 | 72 | 1013.3 |
| 20260904202720 | 22 | 340 | 3.2 | 3.2 | 0.00 | 0.00 | 0.00 | 74 | 1013.3 |
| 20260904202218 | 22 | 326 | 1.6 | 1.6 | 0.00 | 0.00 | 0.00 | 73 | 1013.3 |
| 20260904201717 | 23 | 325 | 1.6 | 3.2 | 0.00 | 0.00 | 0.00 | 72 | 1013.3 |
| 20260904201216 | 23 | 310 | 6.4 | 9.7 | 0.00 | 0.00 | 0.00 | 71 | 1013.3 |
| 20260904200717 | 23 | 329 | 3.2 | 4.8 | 0.00 | 0.00 | 0.00 | 70 | 1013.0 |
| 20260904200217 | 23 | 280 | 6.4 | 9.7 | 0.00 | 0.00 | 0.00 | 68 | 1013.3 |
| 20260904195716 | 23 | 322 | 3.2 | 8.0 | 0.00 | 0.00 | 0.00 | 66 | 1013.3 |
| 20260904195245 | 23 | 320 | 3.2 | 8.0 | 0.00 | 0.00 | 0.00 | 69 | 1013.3 |
| 20260904194746 | 23 | 344 | 4.8 | 8.0 | 0.00 | 0.00 | 0.00 | 70 | 1013.0 |
| 20260904194245 | 23 | 327 | 0.0 | 1.6 | 0.00 | 0.00 | 0.00 | 67 | 1013.3 |
| 20260904193745 | 23 | 308 | 6.4 | 9.7 | 0.00 | 0.00 | 0.00 | 65 | 1013.3 |
| 20260904193244 | 25 | 332 | 6.4 | 9.7 | 0.00 | 0.00 | 0.00 | 64 | 1013.3 |
| 20260904192743 | 24 | 287 | 8.0 | 9.7 | 0.00 | 0.00 | 0.00 | 65 | 1013.1 |
| 20260904192244 | 24 | 326 | 9.7 | 12.9 | 0.00 | 0.00 | 0.00 | 64 | 1013.3 |
| 20260904191743 | -17 | 0.0 | 0.0 | 0.00 | 0.00 | 0.00 | 1013.3 | ||
| 20260904191243 | -17 | 0.0 | 0.0 | 0.00 | 0.00 | 0.00 | 1013.3 | ||
| 20260904190742 | -17 | 0.0 | 0.0 | 0.00 | 0.00 | 0.00 | 1013.3 | ||
| 20260904190243 | -17 | 0.0 | 0.0 | 0.00 | 0.00 | 0.00 | 1013.3 | ||
| 20260904185742 | 23 | 291 | 4.8 | 8.0 | 0.00 | 0.00 | 0.00 | 66 | 1013.3 |
| 20260904185241 | 23 | 291 | 4.8 | 8.0 | 0.00 | 0.00 | 0.00 | 66 | 1013.3 |
| 20260904184742 | 23 | 313 | 4.8 | 4.8 | 0.00 | 0.00 | 0.00 | 66 | 1013.7 |
| 20260904184242 | 23 | 297 | 4.8 | 4.8 | 0.00 | 0.00 | 0.00 | 66 | 1013.7 |
| 20260904183741 | 23 | 343 | 3.2 | 3.2 | 0.00 | 0.00 | 0.00 | 65 | 1013.7 |
| 20260904183240 | 23 | 346 | 4.8 | 8.0 | 0.00 | 0.00 | 0.00 | 65 | 1013.7 |
| 20260904182739 | 23 | 334 | 1.6 | 1.6 | 0.00 | 0.00 | 0.00 | 65 | 1013.3 |
| 20260904182240 | 23 | 337 | 14.5 | 22.5 | 0.00 | 0.00 | 0.00 | 63 | 1013.7 |
| 20260904181740 | 23 | 287 | 4.8 | 9.7 | 0.00 | 0.00 | 0.00 | 65 | 1013.7 |
| 20260904181239 | 23 | 336 | 9.7 | 17.7 | 0.00 | 0.00 | 0.00 | 63 | 1013.7 |
| 20260904180738 | 24 | 339 | 14.5 | 17.7 | 0.00 | 0.00 | 0.00 | 61 | 1013.7 |
| 20260904180239 | 24 | 336 | 8.0 | 17.7 | 0.00 | 0.00 | 0.00 | 62 | 1013.8 |
| 20260904175739 | 24 | 312 | 1.6 | 3.2 | 0.00 | 0.00 | 0.00 | 63 | 1013.7 |
| 20260904175239 | -17 | 0.0 | 0.0 | 0.00 | 0.00 | 0.00 | 1013.7 | ||
| 20260904174739 | 23 | 333 | 14.5 | 20.9 | 0.00 | 0.00 | 0.00 | 60 | 1013.7 |
| 20260904174238 | 23 | 333 | 14.5 | 20.9 | 0.00 | 0.00 | 0.00 | 60 | 1013.7 |
| 20260904173737 | -17 | 0.0 | 0.0 | 0.00 | 0.00 | 0.00 | 1013.3 | ||
| 20260904173237 | -17 | 0.0 | 0.0 | 0.00 | 0.00 | 0.00 | 1013.3 | ||
| 20260904172735 | -17 | 0.0 | 0.0 | 0.00 | 0.00 | 0.00 | 1013.3 | ||
| 20260904172236 | -17 | 0.0 | 0.0 | 0.00 | 0.00 | 0.00 | 1013.3 | ||
| 20260904171736 | 25 | 281 | 6.4 | 9.7 | 0.00 | 0.00 | 0.00 | 60 | 1013.3 |
| 20260904171235 | 25 | 281 | 6.4 | 9.7 | 0.00 | 0.00 | 0.00 | 60 | 1013.7 |
| 20260904170734 | 24 | 340 | 11.3 | 17.7 | 0.00 | 0.00 | 0.00 | 62 | 1013.3 |
| 20260904170235 | 24 | 281 | 11.3 | 14.5 | 0.00 | 0.00 | 0.00 | 65 | 1013.7 |
| 20260904165233 | -17 | 0.0 | 0.0 | 0.00 | 0.00 | 0.00 | 1013.7 | ||
| 20260904164732 | 24 | 12 | 6.4 | 9.7 | 0.00 | 0.00 | 0.00 | 64 | 1013.7 |
| 20260904164234 | 24 | 12 | 6.4 | 9.7 | 0.00 | 0.00 | 0.00 | 64 | 1013.8 |
| 20260904163733 | 25 | 331 | 8.0 | 11.3 | 0.00 | 0.00 | 0.00 | 64 | 1013.7 |
| 20260904163232 | 25 | 6 | 9.7 | 16.1 | 0.00 | 0.00 | 0.00 | 61 | 1013.7 |
| 20260904162731 | 25 | 6 | 9.7 | 16.1 | 0.00 | 0.00 | 0.00 | 61 | 1013.8 |
| 20260904162232 | 24 | 328 | 3.2 | 3.2 | 0.00 | 0.00 | 0.00 | 65 | 1013.8 |
| 20260904161732 | 24 | 356 | 16.1 | 17.7 | 0.00 | 0.00 | 0.00 | 63 | 1014.0 |
| 20260904161231 | 23 | 336 | 4.8 | 4.8 | 0.00 | 0.00 | 0.00 | 65 | 1013.8 |
| 20260904160730 | 23 | 336 | 4.8 | 4.8 | 0.00 | 0.00 | 0.00 | 65 | 1014.0 |
| 20260904160231 | 24 | 316 | 3.2 | 3.2 | 0.00 | 0.00 | 0.00 | 64 | 1013.8 |
| 20260904155732 | 23 | 349 | 4.8 | 8.0 | 0.00 | 0.00 | 0.00 | 66 | 1014.0 |
| 20260904155231 | 23 | 323 | 16.1 | 24.1 | 0.00 | 0.00 | 0.00 | 67 | 1014.0 |
| 20260904154831 | 24 | 315 | 9.7 | 11.3 | 0.00 | 0.00 | 0.00 | 68 | 1014.0 |
| 20260904154230 | 23 | 2 | 4.8 | 4.8 | 0.00 | 0.00 | 0.00 | 68 | 1014.0 |
| 20260904153729 | 23 | 265 | 4.8 | 9.7 | 0.00 | 0.00 | 0.00 | 68 | 1014.0 |
| 20260904153228 | 23 | 317 | 8.0 | 12.9 | 0.00 | 0.00 | 0.00 | 68 | 1014.0 |
| 20260904152727 | 23 | 307 | 3.2 | 3.2 | 0.00 | 0.00 | 0.00 | 70 | 1014.0 |
| 20260904152229 | 23 | 288 | 6.4 | 8.0 | 0.00 | 0.00 | 0.00 | 71 | 1014.0 |
| 20260904151728 | 23 | 354 | 4.8 | 8.0 | 0.00 | 0.00 | 0.00 | 72 | 1014.4 |
| 20260904151227 | 23 | 337 | 12.9 | 14.5 | 0.00 | 0.00 | 0.00 | 72 | 1014.2 |
| 20260904150726 | 23 | 356 | 4.8 | 8.0 | 0.00 | 0.00 | 0.00 | 74 | 1014.4 |
| 20260904150227 | 22 | 326 | 3.2 | 4.8 | 0.00 | 0.00 | 0.00 | 76 | 1014.4 |
| 20260904145726 | 22 | 339 | 3.2 | 4.8 | 0.00 | 0.00 | 0.00 | 76 | 1014.2 |
| 20260904145226 | 23 | 329 | 0.0 | 4.8 | 0.00 | 0.00 | 0.00 | 76 | 1014.0 |
| 20260904144725 | 22 | 327 | 3.2 | 4.8 | 0.00 | 0.00 | 0.00 | 78 | 1014.4 |
| 20260904144226 | 23 | 311 | 4.8 | 9.7 | 0.00 | 0.00 | 0.00 | 76 | 1014.2 |